createdAt,value
2019-01-27T00:01:32.333Z,81.37
2019-01-27T00:05:37.513Z,80.83
2019-01-27T00:09:42.393Z,81.07
2019-01-27T00:13:47.614Z,80.92
2019-01-27T00:17:52.481Z,81.27
2019-01-27T00:21:57.385Z,81.45
2019-01-27T00:26:02.269Z,82.06
2019-01-27T00:30:14.082Z,82.55
2019-01-27T00:34:19.031Z,83.07
2019-01-27T00:38:23.925Z,83.44
2019-01-27T00:42:28.904Z,83.77
2019-01-27T00:46:33.803Z,83.98
2019-01-27T00:50:38.794Z,83.89
2019-01-27T00:54:43.668Z,84.10
2019-01-27T00:58:48.538Z,84.04
2019-01-27T01:02:53.424Z,84.28
2019-01-27T01:06:58.326Z,84.39
2019-01-27T01:11:03.200Z,84.65
2019-01-27T01:15:10.002Z,84.39
2019-01-27T01:19:14.897Z,84.61
2019-01-27T01:23:19.820Z,84.75
2019-01-27T01:27:24.695Z,85.10
2019-01-27T01:31:29.744Z,85.53
2019-01-27T01:35:34.618Z,85.79
2019-01-27T01:39:39.501Z,85.69
2019-01-27T01:43:44.407Z,86.15
2019-01-27T01:47:49.305Z,85.99
2019-01-27T01:51:54.225Z,86.09
2019-01-27T01:55:59.087Z,86.02
2019-01-27T02:00:04.135Z,85.96
2019-01-27T02:04:09.057Z,85.94
2019-01-27T02:08:13.955Z,85.76
2019-01-27T02:12:19.149Z,85.88
2019-01-27T02:16:24.055Z,85.87
2019-01-27T02:20:29.035Z,85.57
2019-01-27T02:24:33.983Z,85.36
2019-01-27T02:28:38.832Z,85.00
2019-01-27T02:32:43.724Z,84.79
2019-01-27T02:36:48.618Z,84.82
2019-01-27T02:40:53.554Z,84.85
2019-01-27T02:44:58.449Z,84.57
2019-01-27T02:49:03.317Z,84.31
2019-01-27T02:53:08.264Z,84.43
2019-01-27T02:57:13.480Z,84.13
2019-01-27T03:01:18.385Z,83.88
2019-01-27T03:05:47.528Z,84.73
2019-01-27T03:09:52.422Z,84.16
2019-01-27T03:13:57.305Z,82.91
2019-01-27T03:18:02.208Z,83.98
2019-01-27T03:22:07.088Z,84.52
2019-01-27T03:26:12.158Z,83.72
2019-01-27T03:30:18.705Z,83.28
2019-01-27T03:34:23.814Z,83.14
2019-01-27T03:38:28.706Z,83.17
2019-01-27T03:42:33.583Z,83.20
2019-01-27T03:46:38.579Z,83.08
2019-01-27T03:50:44.149Z,83.47
2019-01-27T03:54:49.003Z,83.83
2019-01-27T03:58:53.899Z,83.57
2019-01-27T04:02:58.765Z,83.02
2019-01-27T04:07:03.763Z,82.34
2019-01-27T04:11:08.644Z,82.32
2019-01-27T04:15:14.196Z,82.83
2019-01-27T04:19:19.058Z,82.94
2019-01-27T04:23:24.023Z,81.78
2019-01-27T04:27:28.893Z,81.92
2019-01-27T04:31:33.895Z,80.77
2019-01-27T04:35:38.790Z,80.97
2019-01-27T04:39:43.702Z,80.56
2019-01-27T04:43:48.583Z,80.96
2019-01-27T04:47:53.479Z,79.81
2019-01-27T04:51:58.397Z,81.26
2019-01-27T04:56:03.274Z,80.69
2019-01-27T05:00:12.881Z,80.96
2019-01-27T05:04:32.281Z,81.90
2019-01-27T05:08:37.173Z,81.78
2019-01-27T05:12:42.143Z,82.21
2019-01-27T05:16:47.034Z,81.67
2019-01-27T05:20:51.924Z,81.56
2019-01-27T05:24:56.821Z,81.63
2019-01-27T05:29:01.996Z,82.02
2019-01-27T05:33:06.884Z,81.45
2019-01-27T05:37:12.076Z,81.67
2019-01-27T05:41:16.966Z,81.33
2019-01-27T05:45:23.504Z,81.08
2019-01-27T05:49:28.416Z,80.99
2019-01-27T05:53:33.585Z,81.58
2019-01-27T05:57:38.477Z,81.06
2019-01-27T06:01:43.383Z,81.53
2019-01-27T06:05:48.268Z,80.92
2019-01-27T06:09:53.157Z,80.59
2019-01-27T06:13:58.131Z,81.03
2019-01-27T06:18:03.103Z,80.95
2019-01-27T06:22:08.016Z,81.19
2019-01-27T06:26:12.991Z,80.60
2019-01-27T06:30:21.296Z,80.34
2019-01-27T06:34:26.248Z,80.87
2019-01-27T06:38:31.116Z,81.78
2019-01-27T06:46:41.361Z,81.18
2019-01-27T06:50:46.305Z,80.48
2019-01-27T06:54:51.172Z,80.65
2019-01-27T06:59:24.115Z,81.06
2019-01-27T07:03:35.548Z,81.09
2019-01-27T07:07:58.213Z,79.96
2019-01-27T07:12:22.000Z,79.87
2019-01-27T07:16:44.415Z,80.29
2019-01-27T07:20:55.220Z,80.30
2019-01-27T07:25:37.686Z,79.78
2019-01-27T07:30:12.231Z,79.53
2019-01-27T07:34:42.715Z,79.64
2019-01-27T07:39:04.252Z,80.56
2019-01-27T07:43:31.181Z,79.89
2019-01-27T07:47:42.818Z,79.21
2019-01-27T07:52:09.706Z,79.56
2019-01-27T07:56:32.382Z,79.53
2019-01-27T08:00:56.601Z,79.61
2019-01-27T08:05:26.578Z,79.58
2019-01-27T08:09:38.328Z,79.78
2019-01-27T08:14:17.468Z,80.80
2019-01-27T08:18:47.757Z,79.92
2019-01-27T08:23:09.982Z,79.74
2019-01-27T08:27:33.810Z,80.21
2019-01-27T08:31:51.808Z,79.78
2019-01-27T08:36:19.003Z,78.80
2019-01-27T08:40:48.865Z,79.18
2019-01-27T08:45:15.965Z,78.13
2019-01-27T08:49:20.904Z,78.71
2019-01-27T08:53:25.804Z,77.70
2019-01-27T08:57:30.759Z,77.36
2019-01-27T09:01:53.705Z,77.50
2019-01-27T09:06:16.153Z,76.92
2019-01-27T09:10:33.911Z,76.37
2019-01-27T09:15:00.990Z,76.75
2019-01-27T09:19:15.370Z,77.37
2019-01-27T09:23:41.994Z,78.56
2019-01-27T09:27:57.002Z,78.05
2019-01-27T09:32:23.587Z,78.08
2019-01-27T09:37:02.488Z,76.74
2019-01-27T09:41:38.420Z,77.26
2019-01-27T09:46:05.222Z,76.36
2019-01-27T09:50:15.987Z,76.81
2019-01-27T09:54:39.899Z,78.00
2019-01-27T09:59:16.112Z,78.25
2019-01-27T10:03:45.980Z,78.42
2019-01-27T10:08:21.865Z,78.87
2019-01-27T10:12:54.750Z,79.49
2019-01-27T10:17:17.305Z,79.64
2019-01-27T10:21:46.680Z,80.51
2019-01-27T10:25:58.803Z,80.84
2019-01-27T10:30:26.739Z,80.91
2019-01-27T10:34:37.780Z,81.05
2019-01-27T10:38:51.614Z,80.43
2019-01-27T10:43:21.422Z,80.72
2019-01-27T10:47:48.427Z,80.69
2019-01-27T10:52:12.520Z,80.35
2019-01-27T10:56:45.484Z,79.97
2019-01-27T11:00:58.943Z,79.83
2019-01-27T11:05:35.241Z,79.97
2019-01-27T11:09:57.816Z,79.95
2019-01-27T11:14:27.818Z,79.69
2019-01-27T11:18:52.094Z,80.64
2019-01-27T11:23:17.742Z,81.46
2019-01-27T11:27:33.094Z,81.28
2019-01-27T11:31:43.831Z,81.38
2019-01-27T11:36:06.596Z,81.13
2019-01-27T11:40:29.570Z,81.71
2019-01-27T11:44:56.401Z,80.79
2019-01-27T11:49:20.294Z,81.51
2019-01-27T11:53:25.348Z,81.31
2019-01-27T11:57:30.318Z,81.39
2019-01-27T12:01:35.234Z,82.55
2019-01-27T12:05:40.185Z,82.29
2019-01-27T12:09:45.408Z,82.53
2019-01-27T12:13:50.388Z,83.56
2019-01-27T12:17:55.346Z,83.73
2019-01-27T12:22:00.281Z,84.19
2019-01-27T12:26:05.585Z,84.02
2019-01-27T12:30:15.130Z,84.23
2019-01-27T12:34:20.165Z,84.34
2019-01-27T12:38:25.064Z,84.01
2019-01-27T12:42:30.396Z,83.99
2019-01-27T12:46:35.348Z,83.12
2019-01-27T12:50:40.253Z,82.74
2019-01-27T12:54:45.389Z,82.36
2019-01-27T12:58:50.306Z,82.60
2019-01-27T13:02:55.192Z,82.34
2019-01-27T13:07:00.067Z,82.43
2019-01-27T13:11:05.849Z,82.71
2019-01-27T13:15:13.085Z,82.63
2019-01-27T13:19:18.329Z,82.88
2019-01-27T13:23:23.194Z,82.75
2019-01-27T13:27:28.159Z,82.38
2019-01-27T13:31:33.097Z,81.74
2019-01-27T13:35:38.933Z,81.81
2019-01-27T13:39:44.034Z,81.94
2019-01-27T13:43:49.024Z,82.84
2019-01-27T13:47:58.938Z,83.33
2019-01-27T13:52:00.776Z,83.53
2019-01-27T13:56:05.691Z,82.59
2019-01-27T14:00:15.846Z,82.93
2019-01-27T14:04:20.817Z,82.34
2019-01-27T14:08:27.179Z,82.75
2019-01-27T14:12:32.614Z,82.09
2019-01-27T14:16:37.510Z,81.93
2019-01-27T14:20:42.458Z,82.08
2019-01-27T14:24:47.366Z,82.88
2019-01-27T14:28:52.357Z,83.82
2019-01-27T14:32:57.262Z,84.16
2019-01-27T14:37:02.658Z,84.69
2019-01-27T14:41:07.815Z,83.20
2019-01-27T14:45:16.768Z,82.82
2019-01-27T14:49:21.746Z,83.10
2019-01-27T14:53:27.140Z,82.49
2019-01-27T14:57:32.499Z,83.37
2019-01-27T15:01:37.534Z,82.95
2019-01-27T15:05:42.533Z,83.38
2019-01-27T15:09:47.457Z,83.11
2019-01-27T15:13:52.337Z,82.80
2019-01-27T15:17:57.267Z,82.78
2019-01-27T15:22:02.174Z,83.62
2019-01-27T15:26:07.077Z,84.02
2019-01-27T15:30:19.771Z,84.48
2019-01-27T15:34:24.769Z,85.21
2019-01-27T15:38:29.759Z,85.02
2019-01-27T15:42:34.646Z,85.45
2019-01-27T15:46:39.620Z,85.68
2019-01-27T15:50:44.585Z,84.99
2019-01-27T15:54:49.519Z,84.77
2019-01-27T15:58:55.148Z,85.03
2019-01-27T16:03:00.586Z,84.44
2019-01-27T16:07:05.763Z,84.65
2019-01-27T16:11:10.718Z,84.44
2019-01-27T16:15:21.818Z,84.42
2019-01-27T16:19:27.122Z,84.05
2019-01-27T16:23:47.291Z,84.04
2019-01-27T16:27:52.209Z,84.58
2019-01-27T16:32:07.898Z,84.49
2019-01-27T16:36:12.803Z,84.37
2019-01-27T16:40:17.697Z,84.47
2019-01-27T16:44:22.618Z,85.01
2019-01-27T16:48:27.581Z,85.07
2019-01-27T16:52:32.488Z,85.53
2019-01-27T16:56:37.415Z,85.06
2019-01-27T17:00:42.388Z,84.81
2019-01-27T17:04:47.321Z,84.72
2019-01-27T17:08:52.267Z,84.39
2019-01-27T17:12:57.187Z,83.93
2019-01-27T17:17:02.136Z,83.55
2019-01-27T17:21:07.140Z,83.85
2019-01-27T17:25:12.461Z,83.07
2019-01-27T17:29:17.440Z,83.32
2019-01-27T17:33:22.344Z,82.67
2019-01-27T17:37:27.249Z,82.59
2019-01-27T17:41:32.130Z,82.65
2019-01-27T17:45:37.040Z,81.54
2019-01-27T17:49:42.195Z,81.13
2019-01-27T17:53:56.812Z,81.26
2019-01-27T17:58:33.710Z,80.94
2019-01-27T18:03:00.498Z,81.73
2019-01-27T18:07:39.794Z,81.51
2019-01-27T18:11:59.901Z,80.74
2019-01-27T18:16:06.846Z,80.60
2019-01-27T18:20:14.133Z,81.34
2019-01-27T18:24:20.889Z,81.84
2019-01-27T18:28:25.958Z,82.55
2019-01-27T18:32:30.963Z,82.99
2019-01-27T18:36:36.146Z,82.96
2019-01-27T18:40:41.344Z,83.17
2019-01-27T18:44:46.261Z,83.49
2019-01-27T18:48:51.243Z,83.00
2019-01-27T18:53:15.743Z,83.60
2019-01-27T18:57:42.581Z,83.33
2019-01-27T19:02:02.911Z,83.32
2019-01-27T19:06:36.012Z,83.69
2019-01-27T19:10:58.977Z,83.62
2019-01-27T19:15:28.919Z,83.68
2019-01-27T19:20:01.531Z,83.63
2019-01-27T19:24:18.474Z,83.85
2019-01-27T19:28:35.063Z,83.24
2019-01-27T19:32:53.314Z,82.86
2019-01-27T19:37:11.366Z,82.80
2019-01-27T19:41:24.550Z,82.18
2019-01-27T19:45:46.353Z,82.40
2019-01-27T19:50:01.840Z,82.23
2019-01-27T19:54:36.309Z,82.23
2019-01-27T19:58:54.621Z,82.88
2019-01-27T20:03:19.326Z,82.56
2019-01-27T20:07:33.066Z,82.48
2019-01-27T20:11:56.019Z,82.10
2019-01-27T20:16:15.939Z,82.08
2019-01-27T20:20:36.395Z,81.98
2019-01-27T20:25:01.766Z,81.43
2019-01-27T20:29:31.819Z,81.57
2019-01-27T20:34:04.474Z,81.79
2019-01-27T20:38:31.974Z,81.47
2019-01-27T20:42:56.490Z,81.39
2019-01-27T20:47:07.969Z,81.16
2019-01-27T20:51:43.892Z,81.76
2019-01-27T20:56:13.644Z,82.09
2019-01-27T21:00:31.897Z,81.44
2019-01-27T21:05:05.135Z,81.86
2019-01-27T21:09:33.464Z,81.88
2019-01-27T21:13:57.323Z,81.75
2019-01-27T21:18:17.587Z,82.47
2019-01-27T21:22:22.466Z,83.36
2019-01-27T21:26:27.722Z,82.88
2019-01-27T21:30:32.596Z,83.35
2019-01-27T21:34:37.506Z,83.31
2019-01-27T21:38:42.416Z,82.75
2019-01-27T21:42:47.887Z,82.55
2019-01-27T21:46:52.889Z,82.83
2019-01-27T21:50:58.182Z,82.87
2019-01-27T21:55:03.319Z,82.90
2019-01-27T21:59:08.198Z,82.71
2019-01-27T22:03:13.119Z,82.71
2019-01-27T22:07:18.012Z,82.89
2019-01-27T22:11:23.228Z,83.25
2019-01-27T22:15:28.148Z,82.76
2019-01-27T22:19:33.354Z,82.32
2019-01-27T22:23:38.247Z,82.53
2019-01-27T22:27:43.218Z,82.28
2019-01-27T22:31:48.085Z,82.30
2019-01-27T22:35:53.351Z,82.09
2019-01-27T22:39:58.237Z,81.85
2019-01-27T22:44:03.133Z,81.56
2019-01-27T22:48:08.003Z,81.27
2019-01-27T22:52:12.912Z,81.46
2019-01-27T22:56:17.814Z,80.87
2019-01-27T23:01:03.280Z,81.38
2019-01-27T23:05:09.799Z,81.28
2019-01-27T23:09:19.199Z,81.04
2019-01-27T23:13:24.711Z,81.32
2019-01-27T23:17:29.612Z,81.17
2019-01-27T23:21:34.523Z,81.66
2019-01-27T23:25:39.583Z,81.43
2019-01-27T23:29:44.491Z,81.42
2019-01-27T23:33:49.363Z,81.82
2019-01-27T23:37:54.662Z,81.94
2019-01-27T23:41:59.839Z,81.77
2019-01-27T23:46:04.843Z,81.51
2019-01-27T23:50:10.125Z,82.12
2019-01-27T23:54:15.132Z,82.66
2019-01-27T23:58:20.024Z,82.04
